WetterOnline ( https://www.wetteronline.de )

Wetter aktuell Waldmünchen

Aktuelles Wetter: Waldmünchen (499m)

6-stündlich | Neueste Meldungen
Ortszeit Temperatur Wetter
Di, 27.09. 8:00 8.7° C Regen
Di, 27.09. 2:00 9.9° C bewölkt
Mo, 26.09. 20:00 9.4° C leicht bewölkt
Mo, 26.09. 14:00 13.1° C bewölkt
Mo, 26.09. 8:00 9.3° C bedeckt
Mo, 26.09. 2:00 9.5° C bewölkt
So, 25.09. 20:00 11.1° C wolkig
So, 25.09. 14:00 14.0° C bedeckt
Ortszeit Temperatur Wetter
Di, 27.09. 12:30 9.2° C bewölkt
Di, 27.09. 12:20 9.2° C bewölkt
Di, 27.09. 12:10 9.0° C bedeckt
Di, 27.09. 12:00 8.8° C Sprühregen
Di, 27.09. 11:50 8.8° C Sprühregen
Di, 27.09. 11:40 9.2° C bewölkt
Di, 27.09. 11:30 9.6° C bewölkt
Di, 27.09. 11:00 8.4° C leichter Regen
Di, 27.09. 10:30 8.7° C leichter Regen
Di, 27.09. 10:00 8.9° C bewölkt
Di, 27.09. 9:30 8.8° C leichter Regen
Ortszeit Relative Feuchte Sichtweite
Di, 27.09. 8:00 94% 30 km
Di, 27.09. 2:00 83% 55 km
Mo, 26.09. 20:00 83% 50 km
Mo, 26.09. 14:00 63% >70 km
Mo, 26.09. 8:00 92% 30 km
Mo, 26.09. 2:00 98% 10 km
So, 25.09. 20:00 86% 50 km
So, 25.09. 14:00 79% 28 km
Ortszeit Relative Feuchte Sichtweite
Di, 27.09. 12:30 80% >70 km
Di, 27.09. 12:20 80% -
Di, 27.09. 12:10 83% -
Di, 27.09. 12:00 84% 45 km
Di, 27.09. 11:50 84% -
Di, 27.09. 11:40 83% -
Di, 27.09. 11:30 86% >70 km
Di, 27.09. 11:00 92% 25 km
Di, 27.09. 10:30 90% 35 km
Di, 27.09. 10:00 88% >70 km
Di, 27.09. 9:30 92% 10 km
Ortszeit Niederschlagsmenge Niederschlagsart
Di, 27.09. 8:00 2 l/m2 in 12 Std. Regen
Di, 27.09. 2:00 0.1 l/m2 in 6 Std. Regen
Mo, 26.09. 20:00 0.1 l/m2 in 12 Std. Regen
Mo, 26.09. 14:00 0.0 l/m2 in 6 Std. -
Mo, 26.09. 8:00 0.1 l/m2 in 12 Std. Regen
Mo, 26.09. 2:00 0.1 l/m2 in 6 Std. Regen
So, 25.09. 20:00 0.0 l/m2 in 12 Std. -
So, 25.09. 14:00 0.0 l/m2 in 6 Std. -
Ortszeit Niederschlagsmenge Niederschlagsart
Di, 27.09. 12:30 <0.05 l/m2 in 1 Std. Schneeregen
Di, 27.09. 12:20 keine Meldung -
Di, 27.09. 12:10 keine Meldung -
Di, 27.09. 12:00 0.1 l/m2 in 1 Std. Regen
Di, 27.09. 11:50 keine Meldung -
Di, 27.09. 11:40 keine Meldung -
Di, 27.09. 11:30 0.1 l/m2 in 1 Std. Schneeregen
Di, 27.09. 11:00 0.5 l/m2 in 1 Std. Regen
Di, 27.09. 10:30 0.3 l/m2 in 1 Std. -
Di, 27.09. 10:00 0.1 l/m2 in 1 Std. Regen
Di, 27.09. 9:30 <0.05 l/m2 in 1 Std. -
Ortszeit Stärke Spitze Richtung
km/h Bft. km/h Grad Sektor
Di, 27.09. 8:00 20 4 41 190° S
Di, 27.09. 2:00 15 3 30 160° S
Mo, 26.09. 20:00 6 1 26 80° O
Mo, 26.09. 14:00 17 3 48 270° W
Mo, 26.09. 8:00 13 3 28 230° SW
Mo, 26.09. 2:00 0 0 11 - -
So, 25.09. 20:00 4 1 22 270° W
So, 25.09. 14:00 13 3 19 240° SW
Ortszeit Stärke Spitze Richtung
km/h Bft. km/h Grad Sektor
Di, 27.09. 12:30 26 4 43 250° W
Di, 27.09. 12:20 26 4 - 250° W
Di, 27.09. 12:10 25 4 - 240° SW
Di, 27.09. 12:00 29 5 47 230° SW
Di, 27.09. 11:50 29 5 - 230° SW
Di, 27.09. 11:40 30 5 - 210° SW
Di, 27.09. 11:30 28 4 44 220° SW
Di, 27.09. 11:00 24 4 39 210° SW
Di, 27.09. 10:30 18 3 32 230° SW
Di, 27.09. 10:00 22 4 43 230° SW
Di, 27.09. 9:30 28 4 39 210° SW
Ortszeit Untergrenze Bedeckung Gattung
total tief tief mittel hoch
Di, 27.09. 8:00 270 m 7/8 7/8 - - -
Di, 27.09. 2:00 1800 m 8/8 7/8 - - -
Mo, 26.09. 20:00 8400 m 3/8 0/8 - - -
Mo, 26.09. 14:00 1140 m 7/8 7/8 - - -
Mo, 26.09. 8:00 330 m 8/8 8/8 - - -
Mo, 26.09. 2:00 210 m 7/8 7/8 - - -
So, 25.09. 20:00 2700 m 7/8 5/8 - - -
So, 25.09. 14:00 540 m 8/8 8/8 - - -
Ortszeit Bedeckungsgrad in Achtel und Wolkenuntergrenze
Di, 27.09. 12:30 1(480m) 7(1500m) 8(4500m)
Di, 27.09. 12:20 1(480m) 7(1500m) 8(4500m)
Di, 27.09. 12:10 8
Di, 27.09. 12:00 5(510m) 7(840m)
Di, 27.09. 11:50 5(510m) 7(840m)
Di, 27.09. 11:40 7
Di, 27.09. 11:30 3(450m) 6(930m) 7(2100m)
Di, 27.09. 11:00 4(360m) 7(540m) 8(750m)
Di, 27.09. 10:30 7(420m) 7(600m)
Di, 27.09. 10:00 4(420m) 7(570m) 7(960m)
Di, 27.09. 9:30 7(390m) 8(600m)
Ortszeit Luftdruck NN (hPa) Tendenz (hPa in 3 Std.)
Di, 27.09. 8:00 998 - 0,6
Di, 27.09. 2:00 1001 - 2,7
Mo, 26.09. 20:00 1005 - 0,9
Mo, 26.09. 14:00 1007 - 1,3
Mo, 26.09. 8:00 1009 - 0,4
Mo, 26.09. 2:00 1011 - 1,0
So, 25.09. 20:00 1011 + 0,1
So, 25.09. 14:00 1011 - 0,7
Ortszeit Luftdruck NN (hPa) Tendenz (hPa in 3 Std.)
Di, 27.09. 12:30 1000 + 1,5
Di, 27.09. 12:20 1000 keine Meldung
Di, 27.09. 12:10 1000 keine Meldung
Di, 27.09. 12:00 1000 + 1,7
Di, 27.09. 11:50 1000 keine Meldung
Di, 27.09. 11:40 1000 keine Meldung
Di, 27.09. 11:30 1000 + 1,5
Di, 27.09. 11:00 1000 + 1,4
Di, 27.09. 10:30 999 + 1,1
Di, 27.09. 10:00 999 + 1,2
Di, 27.09. 9:30 999 + 0,6
Ortszeit Schneehöhe (cm)
Di, 27.09. 8:00 0
Di, 27.09. 2:00 0
Mo, 26.09. 20:00 0
Mo, 26.09. 14:00 0
Mo, 26.09. 8:00 0
Mo, 26.09. 2:00 0
So, 25.09. 20:00 0
So, 25.09. 14:00 0
Ortszeit Schneehöhe (cm)
Di, 27.09. 12:30 0
Di, 27.09. 12:20 0
Di, 27.09. 12:10 0
Di, 27.09. 12:00 0
Di, 27.09. 11:50 0
Di, 27.09. 11:40 0
Di, 27.09. 11:30 0
Di, 27.09. 11:00 0
Di, 27.09. 10:30 0
Di, 27.09. 10:00 0
Di, 27.09. 9:30 0
Link zu dieser Seite / Seite empfehlen

Das Wetter in ...